Terminal Aerodrome Forecast
Issued by NWS Anchorage, AK

Home | Current Version | Previous Version | Text Only | Print | Product List | Glossary On
Versions: 1 2 3 4 5 6 7 8 9 10 11 12 13 14 15 16 17 18 19 20 21 22 23 24 25 26 27 28 29 30 31 32 33 34 35 36 37 38 39 40 41 42 43 44 45 46 47 48 49 50
000
FTAK31 PANC 231139
TAFANC
TAF
PANC 231139Z 2312/2418 05006KT 3SM BR SCT002
      TEMPO 2312/2316 1/2SM FZFG VV002
     FM232000 05008KT P6SM VCFG FEW005
     FM240400 36005KT P6SM FEW030 BKN070
     FM240800 36005KT 2SM -SN BR BKN010 OVC020=

USA.gov is the U.S. government's official web portal to all federal, state and local government web resources and services.